Time;durP1;ratioP1;P1;durP2;ratioP2;P2;SDS_P1;SDS_P2;PMS_P1;PMS_P2;Temp;Humidity;BMP_temperature;BMP_pressure;BME280_temperature;BME280_humidity;BME280_pressure;Samples;Min_cycle;Max_cycle;Signal;HPM_P1;HPM_P2
2021/07/20 00:00:07;;;;;;;;;0.00;0.00;;;;;24.29;54.05;101532.09;6148567;23;45328;-75
2021/07/20 00:02:38;;;;;;;;;0.00;0.00;;;;;24.33;53.60;101527.50;6148276;23;45308;-75
2021/07/20 00:05:07;;;;;;;;;1.25;1.00;;;;;24.42;53.58;101549.34;6148275;23;46156;-75
2021/07/20 00:07:33;;;;;;;;;3.00;1.25;;;;;24.41;53.68;101547.59;6148023;23;45324;-75
2021/07/20 00:09:59;;;;;;;;;2.75;2.00;;;;;24.43;53.99;101550.19;6147631;23;45324;-76
2021/07/20 00:12:25;;;;;;;;;2.00;0.75;;;;;24.39;54.04;101551.25;6148522;23;45370;-75
2021/07/20 00:14:50;;;;;;;;;0.00;0.00;;;;;24.32;54.34;101547.94;6147976;23;45420;-75
2021/07/20 00:17:15;;;;;;;;;1.00;1.00;;;;;24.20;54.38;101530.66;6147717;23;45362;-76
2021/07/20 00:19:41;;;;;;;;;0.75;0.75;;;;;24.26;54.38;101546.34;6148466;23;45362;-76
2021/07/20 00:22:07;;;;;;;;;1.00;0.25;;;;;24.20;54.34;101532.44;6148316;23;45344;-76
2021/07/20 00:24:32;;;;;;;;;0.50;0.00;;;;;23.99;54.55;101525.16;6147296;23;55694;-74
2021/07/20 00:26:57;;;;;;;;;0.75;0.75;;;;;24.10;54.58;101538.03;6147697;23;45327;-75
2021/07/20 00:29:23;;;;;;;;;1.00;0.25;;;;;24.09;55.13;101540.75;6145816;23;45282;-76
2021/07/20 00:31:48;;;;;;;;;1.75;0.00;;;;;23.96;55.19;101519.94;6147626;23;45351;-75
2021/07/20 00:34:13;;;;;;;;;2.00;0.00;;;;;23.99;55.27;101541.09;6147408;23;45301;-75
2021/07/20 00:36:39;;;;;;;;;1.50;1.50;;;;;23.88;55.41;101520.19;6147341;23;45289;-75
2021/07/20 00:39:05;;;;;;;;;0.50;0.50;;;;;23.94;55.33;101535.06;6147096;23;48825;-75
2021/07/20 00:41:31;;;;;;;;;1.00;0.00;;;;;23.92;55.42;101539.59;6148361;23;45276;-76
2021/07/20 00:43:56;;;;;;;;;0.25;0.00;;;;;23.86;54.88;101521.19;6147726;23;45237;-75
2021/07/20 00:46:22;;;;;;;;;0.50;0.50;;;;;23.75;55.63;101503.81;6147476;23;45337;-76
2021/07/20 00:48:47;;;;;;;;;0.00;0.00;;;;;23.87;55.50;101537.09;6147530;23;45601;-76
2021/07/20 00:51:12;;;;;;;;;0.00;0.00;;;;;23.73;55.33;101518.94;6147762;23;45340;-75
2021/07/20 00:53:38;;;;;;;;;0.75;0.00;;;;;23.81;55.55;101531.97;6147712;23;45411;-75
2021/07/20 00:56:04;;;;;;;;;0.00;0.00;;;;;23.74;55.63;101517.16;6147998;23;45259;-75
2021/07/20 00:58:30;;;;;;;;;1.50;1.50;;;;;23.82;55.58;101541.69;6147933;23;45276;-75
2021/07/20 01:00:55;;;;;;;;;1.00;0.75;;;;;23.75;55.53;101533.06;6147224;23;45626;-75
2021/07/20 01:03:21;;;;;;;;;1.25;1.25;;;;;23.69;55.72;101525.28;6147581;23;46231;-75
2021/07/20 01:05:47;;;;;;;;;0.50;0.50;;;;;23.72;55.75;101538.47;6145950;23;45678;-74
2021/07/20 01:08:16;;;;;;;;;2.25;0.75;;;;;23.72;55.42;101538.47;6147942;23;45288;-75
2021/07/20 01:10:43;;;;;;;;;2.00;1.00;;;;;23.60;55.68;101518.50;6147145;23;45308;-75
2021/07/20 01:13:10;;;;;;;;;0.50;0.25;;;;;23.64;56.15;101529.88;6147833;23;45409;-75
2021/07/20 01:15:37;;;;;;;;;2.00;0.50;;;;;23.56;56.39;101527.50;6147426;23;45315;-75
2021/07/20 01:18:04;;;;;;;;;0.00;0.00;;;;;23.49;56.42;101516.19;6147430;23;45343;-75
2021/07/20 01:20:31;;;;;;;;;0.75;0.75;;;;;23.53;56.17;101525.81;6147824;23;45226;-75
2021/07/20 01:23:17;;;;;;;;;0.00;0.00;;;;;23.61;55.64;101537.97;6147925;23;46212;-75
2021/07/20 01:25:43;;;;;;;;;0.00;0.00;;;;;23.61;55.80;101538.81;6147648;23;45390;-74
2021/07/20 01:28:13;;;;;;;;;0.00;0.00;;;;;23.58;55.80;101541.59;6145948;23;45384;-75
2021/07/20 01:30:42;;;;;;;;;1.25;0.00;;;;;23.56;55.85;101547.88;6146837;23;45178;-75
2021/07/20 01:33:09;;;;;;;;;0.25;0.25;;;;;23.36;55.68;101517.50;6147310;23;45282;-79
2021/07/20 01:35:35;;;;;;;;;0.00;0.00;;;;;23.41;56.42;101544.81;6147035;23;45181;-75
2021/07/20 01:38:04;;;;;;;;;0.00;0.00;;;;;23.44;56.48;101546.50;6147480;22;45295;-75
2021/07/20 01:40:31;;;;;;;;;0.50;0.50;;;;;23.45;56.47;101540.25;6146082;23;45338;-74
2021/07/20 01:42:58;;;;;;;;;0.00;0.00;;;;;23.39;56.04;101547.53;6147412;23;45489;-74
2021/07/20 01:45:28;;;;;;;;;0.75;0.00;;;;;23.35;56.79;101544.97;6146683;22;45288;-74
2021/07/20 01:47:55;;;;;;;;;0.00;0.00;;;;;23.25;56.84;101531.13;6147403;23;45239;-73
2021/07/20 01:50:21;;;;;;;;;1.00;0.00;;;;;23.24;56.56;101529.38;6147494;23;45224;-74
2021/07/20 01:52:47;;;;;;;;;0.50;0.50;;;;;23.25;56.11;101541.75;6148708;23;46692;-74
2021/07/20 01:55:14;;;;;;;;;0.00;0.00;;;;;23.22;56.39;101544.53;6149414;23;45396;-75
2021/07/20 01:57:40;;;;;;;;;1.00;0.00;;;;;23.20;56.80;101547.22;6149329;23;45409;-75
2021/07/20 02:00:08;;;;;;;;;0.00;0.00;;;;;23.13;57.31;101543.03;6149314;23;45355;-75
2021/07/20 02:02:51;;;;;;;;;0.00;0.00;;;;;23.06;57.31;101538.81;6149080;23;45714;-74
2021/07/20 02:08:27;;;;;;;;;0.00;0.00;;;;;22.98;57.66;101539.06;6085985;23;45499;-75
2021/07/20 02:10:56;;;;;;;;;0.00;0.00;;;;;23.05;57.07;101537.94;6087709;23;45454;-74
2021/07/20 02:13:23;;;;;;;;;0.25;0.25;;;;;23.14;57.47;101548.28;6086772;23;45377;-74
2021/07/20 02:15:51;;;;;;;;;0.00;0.00;;;;;23.16;57.07;101545.59;6087534;23;45429;-74
2021/07/20 02:18:19;;;;;;;;;2.00;0.00;;;;;22.90;57.59;101515.41;6087096;23;45391;-74
2021/07/20 02:20:45;;;;;;;;;0.50;0.50;;;;;23.11;57.17;101544.84;6062949;23;45351;-74
2021/07/20 02:23:11;;;;;;;;;0.00;0.00;;;;;23.16;57.30;101548.25;6087167;23;45354;-73
2021/07/20 02:25:40;;;;;;;;;0.25;0.00;;;;;23.12;57.51;101549.25;6087632;23;45413;-73
2021/07/20 02:28:08;;;;;;;;;0.00;0.00;;;;;23.07;56.97;101549.41;6087009;23;45457;-74
2021/07/20 02:30:34;;;;;;;;;0.00;0.00;;;;;23.06;57.32;101544.13;6087175;23;45653;-74
2021/07/20 02:33:01;;;;;;;;;0.00;0.00;;;;;22.99;57.39;101530.16;6087526;23;45372;-74
2021/07/20 02:35:27;;;;;;;;;0.00;0.00;;;;;22.96;57.13;101524.94;6086504;23;45384;-74
2021/07/20 02:37:55;;;;;;;;;0.00;0.00;;;;;22.97;57.27;101540.84;6087783;23;45379;-73
2021/07/20 02:40:23;;;;;;;;;0.00;0.00;;;;;22.92;57.95;101542.78;6087639;23;45296;-74
2021/07/20 02:42:50;;;;;;;;;0.25;0.25;;;;;22.84;57.67;101528.84;6130215;23;46456;-74
2021/07/20 02:45:17;;;;;;;;;2.00;1.00;;;;;22.80;57.65;101521.91;6148814;23;45286;-75
2021/07/20 02:47:44;;;;;;;;;0.00;0.00;;;;;22.85;57.54;101533.25;6148949;23;45276;-75
2021/07/20 02:50:13;;;;;;;;;0.25;0.00;;;;;22.89;57.89;101532.25;6149136;22;45415;-75
2021/07/20 02:52:42;;;;;;;;;0.00;0.00;;;;;22.78;57.96;101522.84;6149401;23;46280;-74
2021/07/20 02:55:08;;;;;;;;;0.00;0.00;;;;;22.84;58.11;101531.50;6149052;23;45377;-75
2021/07/20 02:57:36;;;;;;;;;0.00;0.00;;;;;22.79;58.44;101529.03;6148494;23;45604;-75
2021/07/20 03:00:05;;;;;;;;;0.00;0.00;;;;;22.75;57.88;101541.50;6149567;23;45324;-75
2021/07/20 03:02:35;;;;;;;;;0.75;0.75;;;;;22.42;57.52;101484.97;6148163;23;46283;-75
2021/07/20 03:05:01;;;;;;;;;0.25;0.00;;;;;22.70;58.50;101537.25;6149148;23;45329;-75
2021/07/20 03:07:28;;;;;;;;;2.00;0.00;;;;;22.70;58.27;101535.47;6148594;23;45260;-75
2021/07/20 03:09:54;;;;;;;;;2.00;0.25;;;;;22.68;58.51;101539.94;6148936;23;45670;-75
2021/07/20 03:12:25;;;;;;;;;0.00;0.00;;;;;22.62;58.33;101527.75;6148689;23;46049;-75
2021/07/20 03:14:52;;;;;;;;;0.00;0.00;;;;;22.64;58.16;101539.16;6148591;23;45295;-75
2021/07/20 03:17:21;;;;;;;;;0.00;0.00;;;;;22.66;58.38;101547.06;6148852;23;45468;-78
2021/07/20 03:19:48;;;;;;;;;1.00;1.00;;;;;22.58;58.68;101534.06;6147573;23;45343;-75
2021/07/20 03:22:16;;;;;;;;;0.50;0.50;;;;;22.59;58.52;101535.78;6148663;23;45418;-75
2021/07/20 03:24:44;;;;;;;;;0.25;0.25;;;;;22.55;58.86;101539.41;6146897;23;46170;-76
2021/07/20 03:27:10;;;;;;;;;0.00;0.00;;;;;22.47;57.97;101525.47;6148086;23;45426;-75
2021/07/20 03:29:44;;;;;;;;;0.00;0.00;;;;;22.52;58.57;101524.47;6149169;23;45375;-75
2021/07/20 03:32:15;;;;;;;;;2.00;0.00;;;;;22.43;58.09;101524.72;6148158;23;47077;-76
2021/07/20 03:34:41;;;;;;;;;1.00;0.00;;;;;22.53;58.74;101533.28;6148620;23;45304;-76
2021/07/20 03:37:07;;;;;;;;;0.50;0.50;;;;;22.48;58.10;101533.41;6148181;23;45364;-75
2021/07/20 03:39:35;;;;;;;;;1.50;0.75;;;;;22.47;58.49;101546.72;6148593;23;45375;-75
2021/07/20 03:42:01;;;;;;;;;0.00;0.00;;;;;22.39;58.92;101531.03;6148786;23;45764;-74
2021/07/20 03:44:29;;;;;;;;;0.00;0.00;;;;;22.25;59.12;101529.63;6148554;23;45323;-75
2021/07/20 03:46:56;;;;;;;;;0.00;0.00;;;;;22.33;59.05;101541.81;6146623;23;45197;-75
2021/07/20 03:49:22;;;;;;;;;1.00;0.00;;;;;22.23;58.91;101523.50;6148646;23;45411;-75
2021/07/20 03:51:48;;;;;;;;;0.25;0.25;;;;;22.31;58.42;101540.97;6148354;23;46360;-75
2021/07/20 03:54:13;;;;;;;;;1.00;1.00;;;;;22.24;59.02;101538.50;6147641;23;45351;-75
2021/07/20 03:56:41;;;;;;;;;0.00;0.00;;;;;22.20;59.09;101536.00;6148668;23;45275;-75
2021/07/20 03:59:08;;;;;;;;;0.25;0.00;;;;;22.20;59.13;101549.25;6148551;23;45348;-74
2021/07/20 04:01:37;;;;;;;;;1.00;1.00;;;;;22.08;58.55;101532.75;6147825;23;46513;-76
2021/07/20 04:04:06;;;;;;;;;0.25;0.00;;;;;22.12;58.63;101547.69;6148109;23;45425;-76
2021/07/20 04:06:32;;;;;;;;;0.00;0.00;;;;;21.92;59.46;101524.34;6147714;23;45345;-75
2021/07/20 04:08:59;;;;;;;;;1.00;1.00;;;;;21.86;59.18;101514.78;6147568;23;45311;-75
2021/07/20 04:11:25;;;;;;;;;0.25;0.25;;;;;22.01;59.15;101549.72;6147537;23;45352;-75
2021/07/20 04:13:52;;;;;;;;;0.50;0.00;;;;;21.87;59.38;101536.84;6148109;23;45332;-75
2021/07/20 04:16:22;;;;;;;;;0.75;0.75;;;;;21.92;59.71;101561.44;6147376;23;45399;-75
2021/07/20 04:18:47;;;;;;;;;0.00;0.00;;;;;21.82;59.68;101542.28;6148538;23;45277;-75
2021/07/20 04:21:13;;;;;;;;;0.00;0.00;;;;;21.94;59.25;101562.28;6147565;23;45567;-75
2021/07/20 04:23:38;;;;;;;;;0.00;0.00;;;;;21.94;59.16;101562.28;6147104;23;45223;-75
2021/07/20 04:26:04;;;;;;;;;0.50;0.25;;;;;21.84;59.58;101553.69;6147929;23;45487;-76
2021/07/20 04:28:29;;;;;;;;;1.00;1.00;;;;;21.89;59.69;101551.81;6146220;23;45293;-74
2021/07/20 04:30:58;;;;;;;;;0.00;0.00;;;;;21.93;59.21;101562.31;6147475;23;45357;-75
2021/07/20 04:33:28;;;;;;;;;1.25;0.25;;;;;21.94;59.35;101569.34;6147321;23;45326;-75
2021/07/20 04:35:57;;;;;;;;;0.50;0.50;;;;;21.92;59.36;101572.03;6147911;23;45410;-75
2021/07/20 04:38:24;;;;;;;;;0.00;0.00;;;;;21.82;59.65;101565.25;6147603;23;45602;-75
2021/07/20 04:40:50;;;;;;;;;1.75;1.00;;;;;21.85;59.40;101563.41;6147836;23;46292;-75
2021/07/20 04:43:16;;;;;;;;;0.25;0.25;;;;;21.85;59.35;101570.47;6146992;23;45363;-75
2021/07/20 04:45:44;;;;;;;;;0.75;0.75;;;;;21.80;59.57;101564.44;6145776;23;45316;-77
2021/07/20 04:48:13;;;;;;;;;0.75;0.75;;;;;21.61;59.69;101541.88;6147998;23;45366;-74
2021/07/20 04:50:39;;;;;;;;;6.00;2.00;;;;;21.66;59.60;101552.38;6147178;23;45399;-75
2021/07/20 04:53:05;;;;;;;;;0.00;0.00;;;;;21.79;59.31;101579.44;6146787;23;45307;-75
2021/07/20 04:55:31;;;;;;;;;0.50;0.00;;;;;21.83;59.69;101573.16;6148015;23;45383;-76
2021/07/20 04:57:58;;;;;;;;;1.00;1.00;;;;;21.80;60.01;101567.94;6146046;23;45433;-75
2021/07/20 05:00:23;;;;;;;;;0.00;0.00;;;;;21.87;59.03;101566.00;6147045;23;46324;-75
2021/07/20 05:02:51;;;;;;;;;0.00;0.00;;;;;21.84;59.10;101564.28;6145178;23;45309;-75
2021/07/20 05:05:22;;;;;;;;;0.00;0.00;;;;;21.87;59.78;101579.25;6147714;23;45206;-75
2021/07/20 05:07:49;;;;;;;;;0.00;0.00;;;;;21.74;58.75;101558.34;6147380;23;45320;-75
2021/07/20 05:10:14;;;;;;;;;0.00;0.00;;;;;21.88;59.33;101587.19;6145086;23;47333;-75
2021/07/20 05:12:41;;;;;;;;;0.75;0.00;;;;;21.95;58.96;101590.53;6147197;23;45300;-75
2021/07/20 05:15:08;;;;;;;;;0.75;0.75;;;;;21.95;59.24;101579.91;6170514;23;45412;-75
2021/07/20 05:17:35;;;;;;;;;3.00;0.00;;;;;21.94;59.23;101577.31;6147309;23;45383;-75
2021/07/20 05:20:04;;;;;;;;;0.00;0.00;;;;;22.07;58.75;101584.03;6146820;23;48022;-75
2021/07/20 05:22:33;;;;;;;;;0.00;0.00;;;;;22.09;58.44;101589.28;6146687;23;45297;-75
2021/07/20 05:25:04;;;;;;;;;0.00;0.00;;;;;22.22;58.61;101585.41;6147013;23;45308;-75
2021/07/20 05:27:45;;;;;;;;;2.00;0.25;;;;;22.27;58.34;101585.28;6149479;23;45599;-75
2021/07/20 05:30:12;;;;;;;;;1.25;1.25;;;;;22.23;58.02;101570.34;6146778;23;46418;-75
2021/07/20 05:32:41;;;;;;;;;0.50;0.50;;;;;22.33;57.71;101577.13;6148589;23;45249;-75
2021/07/20 05:35:12;;;;;;;;;0.75;0.00;;;;;22.47;57.65;101591.81;6148324;23;45256;-75
2021/07/20 05:37:40;;;;;;;;;0.00;0.00;;;;;22.42;57.29;101581.34;6149137;23;45340;-75
2021/07/20 05:40:17;;;;;;;;;0.50;0.50;;;;;22.56;56.88;101595.97;6149003;23;46078;-75
2021/07/20 05:42:45;;;;;;;;;0.00;0.00;;;;;22.52;57.16;101579.28;6149091;23;45286;-75
2021/07/20 05:45:12;;;;;;;;;0.00;0.00;;;;;22.72;56.82;101596.47;6148578;23;45323;-75
2021/07/20 05:47:42;;;;;;;;;2.25;1.00;;;;;22.75;56.59;101591.03;6148644;23;45402;-76
2021/07/20 05:50:09;;;;;;;;;0.00;0.00;;;;;22.76;56.47;101591.00;6148803;23;45671;-74
2021/07/20 05:52:41;;;;;;;;;1.00;0.50;;;;;22.69;55.73;101572.66;6149108;23;45256;-75
2021/07/20 05:55:09;;;;;;;;;0.00;0.00;;;;;22.84;55.79;101585.47;6148947;23;45299;-75
2021/07/20 05:57:35;;;;;;;;;1.00;1.00;;;;;23.03;55.15;101599.06;6149181;23;45312;-76
2021/07/20 06:00:03;;;;;;;;;0.00;0.00;;;;;23.20;55.09;101605.66;6148575;23;45844;-75
2021/07/20 06:02:31;;;;;;;;;1.75;1.75;;;;;23.27;54.94;101612.50;6148422;23;45338;-75
2021/07/20 06:04:56;;;;;;;;;1.50;1.50;;;;;23.20;54.23;101589.72;6148498;23;45353;-76
2021/07/20 06:07:22;;;;;;;;;0.00;0.00;;;;;23.43;54.07;101612.06;6149275;23;45402;-75
2021/07/20 06:09:48;;;;;;;;;0.00;0.00;;;;;23.50;54.15;101618.03;6148367;23;45938;-75
2021/07/20 06:12:15;;;;;;;;;0.00;0.00;;;;;23.52;53.06;101616.22;6148536;23;45296;-75
2021/07/20 06:14:42;;;;;;;;;0.75;0.75;;;;;23.48;52.36;101598.59;6148265;23;45354;-75
2021/07/20 06:17:08;;;;;;;;;1.00;1.00;;;;;23.60;52.06;101619.47;6148662;23;45371;-75
2021/07/20 06:19:35;;;;;;;;;0.00;0.00;;;;;23.65;51.80;101611.34;6148238;23;45304;-75
2021/07/20 06:22:04;;;;;;;;;2.50;1.00;;;;;23.74;51.00;101620.81;6148700;23;45295;-75
2021/07/20 06:24:32;;;;;;;;;1.50;0.50;;;;;23.79;50.84;101624.19;6146156;23;45369;-75
2021/07/20 06:26:58;;;;;;;;;1.00;1.00;;;;;23.84;49.71;101621.38;6149069;23;45371;-75
2021/07/20 06:29:25;;;;;;;;;0.00;0.00;;;;;23.88;50.19;101623.00;6148255;23;45966;-76
2021/07/20 06:31:52;;;;;;;;;1.75;1.00;;;;;23.88;50.29;101623.88;6148892;23;45331;-75
2021/07/20 06:34:18;;;;;;;;;1.00;1.00;;;;;23.66;49.82;101587.41;6147971;23;45280;-75
2021/07/20 06:36:44;;;;;;;;;3.00;2.00;;;;;23.90;49.36;101623.81;6148577;23;45308;-75
2021/07/20 06:39:10;;;;;;;;;2.75;0.75;;;;;23.68;49.06;101595.31;6147181;23;45391;-75
2021/07/20 06:41:38;;;;;;;;;1.00;1.00;;;;;23.91;49.14;101617.59;6148812;23;45260;-74
2021/07/20 06:44:05;;;;;;;;;1.00;1.00;;;;;23.92;49.09;101620.19;6148696;23;45210;-75
2021/07/20 06:46:31;;;;;;;;;1.00;0.25;;;;;24.00;49.31;101632.34;6148688;23;45410;-75
2021/07/20 06:48:58;;;;;;;;;0.50;0.50;;;;;24.04;49.37;101626.88;6147456;23;46059;-74
2021/07/20 06:51:24;;;;;;;;;1.25;1.00;;;;;23.96;48.81;101614.78;6147533;23;45370;-73
2021/07/20 06:53:52;;;;;;;;;0.00;0.00;;;;;24.04;49.00;101628.66;6148404;23;45310;-76
2021/07/20 06:56:23;;;;;;;;;1.25;1.00;;;;;24.12;48.52;101628.41;6148537;23;45378;-78
2021/07/20 06:58:50;;;;;;;;;2.00;2.00;;;;;24.12;48.85;101623.97;6147438;23;46143;-75
2021/07/20 07:01:17;;;;;;;;;2.00;0.25;;;;;24.00;48.33;101593.34;6147582;23;45380;-73
2021/07/20 07:03:54;;;;;;;;;0.00;0.00;;;;;24.13;48.43;101628.38;6148431;23;45352;-75
2021/07/20 07:06:23;;;;;;;;;1.00;1.00;;;;;24.09;48.10;101607.22;6147839;23;45272;-74
2021/07/20 07:08:49;;;;;;;;;0.25;0.25;;;;;24.19;48.04;101635.28;6147911;23;46284;-75
2021/07/20 07:11:16;;;;;;;;;0.25;0.25;;;;;24.17;48.13;101621.19;6147492;23;45364;-75
2021/07/20 07:13:41;;;;;;;;;1.75;1.00;;;;;24.20;47.21;101623.75;6147310;23;45312;-76
2021/07/20 07:16:07;;;;;;;;;1.00;1.00;;;;;24.15;47.43;101631.00;6147831;23;45644;-75
2021/07/20 07:18:33;;;;;;;;;1.00;1.00;;;;;24.22;47.23;101637.84;6146832;23;46118;-74
2021/07/20 07:20:59;;;;;;;;;1.00;1.00;;;;;24.29;47.56;101638.50;6147693;23;45451;-75
2021/07/20 07:23:27;;;;;;;;;0.00;0.00;;;;;24.40;47.10;101643.44;6148377;23;45296;-75
2021/07/20 07:25:57;;;;;;;;;0.50;0.50;;;;;24.40;47.19;101644.31;6148108;23;45398;-75
2021/07/20 07:28:24;;;;;;;;;0.00;0.00;;;;;24.39;47.49;101639.03;6147060;23;47198;-76
2021/07/20 07:30:51;;;;;;;;;1.25;1.25;;;;;24.48;46.55;101648.47;6147770;23;45245;-74
2021/07/20 07:33:18;;;;;;;;;0.00;0.00;;;;;24.51;46.32;101654.56;6147203;23;45282;-73
2021/07/20 07:35:47;;;;;;;;;1.00;1.00;;;;;24.54;46.33;101651.78;6148196;23;45394;-75
2021/07/20 07:38:16;;;;;;;;;4.75;1.25;;;;;24.57;46.18;101645.50;6147311;23;46440;-76
2021/07/20 07:40:43;;;;;;;;;2.75;1.00;;;;;24.57;45.68;101653.47;6148097;23;45335;-74
2021/07/20 07:43:09;;;;;;;;;6.00;2.50;;;;;24.60;45.39;101650.72;6147762;23;45335;-75
2021/07/20 07:45:36;;;;;;;;;0.75;0.75;;;;;24.68;45.69;101655.72;6148055;23;45307;-74
2021/07/20 07:48:02;;;;;;;;;1.50;1.00;;;;;24.75;45.06;101645.75;6147532;23;45649;-76
2021/07/20 07:50:28;;;;;;;;;1.00;1.00;;;;;24.86;44.97;101643.53;6147037;23;45229;-75
2021/07/20 07:52:55;;;;;;;;;0.25;0.25;;;;;24.81;45.16;101626.88;6147245;23;45306;-76
2021/07/20 07:55:21;;;;;;;;;1.00;1.00;;;;;24.75;45.25;101609.31;6148113;23;45372;-75
2021/07/20 07:57:48;;;;;;;;;0.75;0.75;;;;;25.00;44.44;101650.19;6146636;23;47145;-75
2021/07/20 08:00:15;;;;;;;;;0.75;0.75;;;;;25.00;44.89;101650.19;6147583;23;45517;-74
2021/07/20 08:02:43;;;;;;;;;1.00;1.00;;;;;24.95;44.28;101647.69;6146946;23;45244;-77
2021/07/20 08:05:09;;;;;;;;;1.75;0.00;;;;;24.93;44.24;101652.22;6147799;23;45305;-76
2021/07/20 08:07:37;;;;;;;;;2.00;1.00;;;;;24.95;43.99;101645.03;6145481;23;46005;-80
2021/07/20 08:10:04;;;;;;;;;0.75;0.75;;;;;25.06;44.26;101649.94;6117967;23;45662;-76
2021/07/20 08:12:30;;;;;;;;;0.75;0.75;;;;;25.02;43.80;101619.03;6146368;23;45359;-78
2021/07/20 08:14:57;;;;;;;;;0.50;0.50;;;;;25.23;44.24;101651.94;6146252;23;45423;-74
2021/07/20 08:17:24;;;;;;;;;1.00;1.00;;;;;25.22;43.69;101650.22;6146520;23;46099;-76
2021/07/20 08:19:52;;;;;;;;;0.50;0.50;;;;;25.23;43.97;101635.97;6147363;23;45343;-77
2021/07/20 08:22:19;;;;;;;;;1.75;1.75;;;;;25.33;43.70;101635.59;6144697;23;45387;-76
2021/07/20 08:24:55;;;;;;;;;0.00;0.00;;;;;25.45;43.63;101640.41;6146976;23;45340;-76
2021/07/20 08:27:29;;;;;;;;;2.25;0.00;;;;;25.60;43.35;101638.13;6146009;23;46837;-76
2021/07/20 08:29:56;;;;;;;;;2.00;2.00;;;;;25.65;43.61;101646.78;6145992;23;45400;-75
2021/07/20 08:32:25;;;;;;;;;1.00;1.00;;;;;25.54;43.38;101640.06;6147131;23;45331;-75
2021/07/20 08:34:59;;;;;;;;;2.00;2.00;;;;;25.58;42.90;101651.47;6147438;23;45287;-76
2021/07/20 08:37:29;;;;;;;;;2.00;0.25;;;;;25.53;42.30;101645.44;6139656;23;45609;-76
2021/07/20 08:39:57;;;;;;;;;1.25;1.25;;;;;25.41;42.69;101629.03;6145074;23;45375;-77
2021/07/20 08:42:31;;;;;;;;;0.75;0.00;;;;;25.57;42.81;101644.41;6144406;23;45391;-76
2021/07/20 08:45:11;;;;;;;;;1.00;1.00;;;;;25.52;42.19;101630.41;6145636;23;45367;-80
2021/07/20 08:47:46;;;;;;;;;0.50;0.50;;;;;25.65;42.60;101650.34;6145304;23;45391;-80
2021/07/20 08:50:42;;;;;;;;;2.00;1.00;;;;;25.78;43.05;101649.81;6145085;23;45573;-79
2021/07/20 08:53:20;;;;;;;;;3.00;1.00;;;;;25.82;42.66;101632.78;6144894;23;45244;-79
2021/07/20 08:55:50;;;;;;;;;0.75;0.75;;;;;25.85;42.42;101653.09;6142198;23;45507;-82
2021/07/20 08:58:22;;;;;;;;;0.00;0.00;;;;;25.87;42.99;101652.09;6143937;23;46192;-80
2021/07/20 09:00:52;;;;;;;;;1.00;1.00;;;;;25.84;42.70;101641.56;6144102;23;45414;-76
2021/07/20 09:03:40;;;;;;;;;1.25;1.25;;;;;25.87;42.70;101645.88;6145466;23;45338;-76
2021/07/20 09:06:11;;;;;;;;;2.50;0.00;;;;;25.88;42.54;101645.81;6134322;23;45643;-79
2021/07/20 09:08:42;;;;;;;;;3.00;1.00;;;;;25.99;42.29;101649.84;6146969;23;45565;-80
2021/07/20 09:11:21;;;;;;;;;1.75;1.75;;;;;26.07;42.33;101647.72;6144748;23;45687;-79
2021/07/20 09:13:53;;;;;;;;;3.25;1.00;;;;;26.13;42.05;101651.94;6145299;23;45967;-79
2021/07/20 09:16:33;;;;;;;;;2.50;0.00;;;;;26.06;42.33;101646.84;6145525;23;45307;-78
2021/07/20 09:19:10;;;;;;;;;0.00;0.00;;;;;25.94;42.87;101644.72;6143808;23;46541;-79
2021/07/20 09:21:41;;;;;;;;;2.00;0.75;;;;;25.93;42.91;101649.19;6143809;23;46349;-78
2021/07/20 09:24:10;;;;;;;;;1.00;1.00;;;;;25.88;42.95;101643.16;6143748;23;45345;-75
2021/07/20 09:26:44;;;;;;;;;2.50;0.50;;;;;25.93;43.20;101643.84;6145412;23;45299;-76
2021/07/20 09:29:15;;;;;;;;;2.50;1.00;;;;;25.99;43.10;101648.06;6144258;23;45842;-75
2021/07/20 09:31:47;;;;;;;;;1.00;1.00;;;;;26.06;43.16;101651.31;6145397;23;45370;-76
2021/07/20 09:34:26;;;;;;;;;1.50;0.75;;;;;26.10;43.18;101652.06;6145072;23;45324;-75
2021/07/20 09:37:19;;;;;;;;;3.00;1.50;;;;;26.21;43.64;101649.78;6144926;23;45394;-77
2021/07/20 09:40:02;;;;;;;;;1.00;1.00;;;;;26.27;42.86;101643.31;6146068;23;46230;-77
2021/07/20 09:43:04;;;;;;;;;3.50;1.00;;;;;26.37;43.41;101643.81;6145140;23;45322;-77
2021/07/20 09:45:43;;;;;;;;;4.50;2.00;;;;;26.48;42.81;101635.31;6146113;22;45686;-77
2021/07/20 09:48:38;;;;;;;;;0.75;0.75;;;;;26.58;42.67;101641.13;6142998;23;45469;-78
2021/07/20 09:51:25;;;;;;;;;1.75;1.75;;;;;26.54;42.66;101641.28;6132064;23;45734;-75
2021/07/20 09:54:13;;;;;;;;;1.25;0.00;;;;;26.44;42.65;101634.59;6145174;23;45319;-75
2021/07/20 09:56:54;;;;;;;;;1.00;0.50;;;;;26.45;42.41;101636.34;6144974;23;45411;-74
2021/07/20 09:59:50;;;;;;;;;0.25;0.25;;;;;26.59;42.69;101645.53;6144540;23;45344;-74
2021/07/20 10:02:24;;;;;;;;;3.50;0.50;;;;;26.66;43.01;101638.97;6144178;22;46333;-76
2021/07/20 10:05:14;;;;;;;;;0.00;0.00;;;;;26.66;42.98;101636.31;6143260;23;45418;-76
2021/07/20 10:07:45;;;;;;;;;1.00;1.00;;;;;26.69;42.79;101638.84;6145711;23;45411;-75
2021/07/20 10:10:16;;;;;;;;;2.75;1.25;;;;;26.73;42.72;101620.88;6144697;23;45468;-76
2021/07/20 10:12:52;;;;;;;;;2.25;1.00;;;;;26.80;42.56;101635.69;6144494;23;45371;-77
2021/07/20 10:15:25;;;;;;;;;1.00;0.00;;;;;26.72;42.08;101622.69;6145209;23;46248;-76
2021/07/20 10:18:04;;;;;;;;;2.50;0.50;;;;;26.62;42.49;101608.91;6144638;23;45419;-77
2021/07/20 10:20:38;;;;;;;;;1.00;1.00;;;;;26.80;42.28;101633.84;6147106;23;45320;-79
2021/07/20 10:23:27;;;;;;;;;0.75;0.00;;;;;26.85;42.39;101617.63;6145466;23;45990;-76
2021/07/20 10:26:04;;;;;;;;;1.25;1.00;;;;;26.79;42.60;101602.75;6145497;23;45332;-77
2021/07/20 10:28:36;;;;;;;;;1.00;1.00;;;;;26.92;42.03;101623.56;6143932;23;45653;-76
2021/07/20 10:31:14;;;;;;;;;1.00;0.00;;;;;27.01;42.38;101617.81;6145601;23;45253;-78
2021/07/20 10:33:44;;;;;;;;;2.25;2.00;;;;;27.05;41.86;101624.75;6134116;23;46458;-77
2021/07/20 10:36:17;;;;;;;;;0.75;0.75;;;;;27.06;41.86;101609.56;6145092;23;45406;-77
2021/07/20 10:39:03;;;;;;;;;1.00;1.00;;;;;27.12;41.05;101608.41;6144576;23;45394;-75
2021/07/20 10:42:05;;;;;;;;;0.00;0.00;;;;;26.99;41.41;101595.66;6146473;23;45271;-82
2021/07/20 10:44:44;;;;;;;;;1.00;0.00;;;;;26.90;41.66;101596.94;6143548;23;47345;-82
2021/07/20 10:47:14;;;;;;;;;0.00;0.00;;;;;26.95;41.59;101588.69;6145538;23;45371;-82
2021/07/20 10:50:00;;;;;;;;;1.25;0.25;;;;;27.01;41.69;101585.75;6146172;23;45376;-78
2021/07/20 10:52:30;;;;;;;;;2.00;0.00;;;;;26.96;40.46;101577.06;6146525;23;45378;-79
2021/07/20 10:55:07;;;;;;;;;1.75;1.00;;;;;27.11;40.61;101601.34;6145729;23;47777;-79
2021/07/20 10:57:49;;;;;;;;;0.25;0.25;;;;;27.10;40.46;101599.63;6145620;23;45636;-78
2021/07/20 11:00:18;;;;;;;;;1.00;1.00;;;;;26.93;40.50;101577.22;6144788;23;45426;-80
2021/07/20 11:03:20;;;;;;;;;1.50;1.00;;;;;27.07;40.56;101595.25;6146260;23;45624;-78
2021/07/20 11:05:48;;;;;;;;;1.00;1.00;;;;;27.17;41.50;101585.88;6143359;23;47403;-79
2021/07/20 11:08:16;;;;;;;;;2.75;2.00;;;;;27.02;40.44;101563.44;6144760;23;45511;-80
2021/07/20 11:10:49;;;;;;;;;0.00;0.00;;;;;27.13;41.04;101581.63;6145740;23;45599;-80
2021/07/20 11:13:19;;;;;;;;;0.50;0.00;;;;;27.23;40.59;101578.50;6146711;23;45632;-79
2021/07/20 11:15:55;;;;;;;;;2.75;1.75;;;;;27.19;40.29;101573.31;6145389;23;46146;-76
2021/07/20 11:18:29;;;;;;;;;1.00;1.00;;;;;27.28;40.02;101577.34;6145838;23;45447;-76
2021/07/20 11:20:59;;;;;;;;;2.50;2.50;;;;;27.26;40.08;101573.84;6146629;23;45380;-79
2021/07/20 11:23:26;;;;;;;;;0.00;0.00;;;;;27.43;40.06;101590.88;6145547;23;45753;-79
2021/07/20 11:25:52;;;;;;;;;0.25;0.00;;;;;27.36;40.18;101563.59;6143608;23;48550;-79
2021/07/20 11:28:19;;;;;;;;;0.75;0.75;;;;;27.49;39.89;101582.56;6142934;23;45767;-76
2021/07/20 11:30:48;;;;;;;;;1.25;0.00;;;;;27.57;39.80;101571.47;6145514;23;45338;-77
2021/07/20 11:33:24;;;;;;;;;0.25;0.25;;;;;27.53;40.01;101544.03;6135121;23;45709;-80
2021/07/20 11:35:53;;;;;;;;;1.00;0.25;;;;;27.77;40.38;101578.50;6143419;23;45677;-80
2021/07/20 11:38:23;;;;;;;;;0.75;0.75;;;;;27.75;38.84;101587.56;6143699;23;45412;-80